sensor_id;sensor_type;location;lat;lon;timestamp;pressure;altitude;pressure_sealevel;temperature;humidity
13033;BME280;6583;42.632;23.298;2024-03-08T00:01:04;71072.72;;;-146.40;91.86
13033;BME280;6583;42.632;23.298;2024-03-08T00:03:32;71090.91;;;-146.40;92.61
13033;BME280;6583;42.632;23.298;2024-03-08T00:05:59;71113.19;;;-146.40;93.18
13033;BME280;6583;42.632;23.298;2024-03-08T00:08:26;71113.19;;;-146.40;94.42
13033;BME280;6583;42.632;23.298;2024-03-08T00:10:53;71125.31;;;-146.40;94.89
13033;BME280;6583;42.632;23.298;2024-03-08T00:13:21;71129.38;;;-146.40;94.68
13033;BME280;6583;42.632;23.298;2024-03-08T00:15:49;71137.47;;;-146.40;94.75
13033;BME280;6583;42.632;23.298;2024-03-08T00:18:16;71133.41;;;-146.40;95.81
13033;BME280;6583;42.632;23.298;2024-03-08T00:20:43;71129.38;;;-146.40;96.38
13033;BME280;6583;42.632;23.298;2024-03-08T00:23:10;71121.28;;;-146.40;96.25
13033;BME280;6583;42.632;23.298;2024-03-08T00:25:41;71129.38;;;-146.40;95.72
13033;BME280;6583;42.632;23.298;2024-03-08T00:28:08;71123.28;;;-146.40;96.22
13033;BME280;6583;42.632;23.298;2024-03-08T00:30:41;71117.22;;;-146.40;96.47
13033;BME280;6583;42.632;23.298;2024-03-08T00:33:08;71113.19;;;-146.40;95.93
13033;BME280;6583;42.632;23.298;2024-03-08T00:35:35;71097.00;;;-146.40;96.04
13033;BME280;6583;42.632;23.298;2024-03-08T00:38:02;71092.94;;;-146.40;95.77
13033;BME280;6583;42.632;23.298;2024-03-08T00:40:31;71088.91;;;-146.40;95.38
13033;BME280;6583;42.632;23.298;2024-03-08T00:42:58;71080.81;;;-146.40;94.78
13033;BME280;6583;42.632;23.298;2024-03-08T00:45:24;71088.91;;;-146.40;94.04
13033;BME280;6583;42.632;23.298;2024-03-08T00:47:52;71088.91;;;-146.40;93.89
13033;BME280;6583;42.632;23.298;2024-03-08T00:50:20;71086.88;;;-146.40;94.08
13033;BME280;6583;42.632;23.298;2024-03-08T00:52:49;71088.91;;;-146.40;94.64
13033;BME280;6583;42.632;23.298;2024-03-08T00:55:17;71092.94;;;-146.40;94.40
13033;BME280;6583;42.632;23.298;2024-03-08T00:57:44;71088.91;;;-146.40;94.33
13033;BME280;6583;42.632;23.298;2024-03-08T01:00:12;71090.91;;;-146.40;94.21
13033;BME280;6583;42.632;23.298;2024-03-08T01:02:38;71101.03;;;-146.40;95.22
13033;BME280;6583;42.632;23.298;2024-03-08T01:05:10;71115.19;;;-146.40;95.37
13033;BME280;6583;42.632;23.298;2024-03-08T01:07:36;71115.19;;;-146.40;95.64
13033;BME280;6583;42.632;23.298;2024-03-08T01:10:04;71125.31;;;-146.40;96.66
13033;BME280;6583;42.632;23.298;2024-03-08T01:12:34;71133.41;;;-146.40;96.77
13033;BME280;6583;42.632;23.298;2024-03-08T01:15:01;71139.50;;;-146.40;97.35
13033;BME280;6583;42.632;23.298;2024-03-08T01:17:31;71141.50;;;-146.40;97.67
13033;BME280;6583;42.632;23.298;2024-03-08T01:19:58;71149.59;;;-146.40;97.97
13033;BME280;6583;42.632;23.298;2024-03-08T01:22:26;71153.66;;;-146.40;98.46
13033;BME280;6583;42.632;23.298;2024-03-08T01:24:55;71149.59;;;-146.40;98.57
13033;BME280;6583;42.632;23.298;2024-03-08T01:27:21;71145.56;;;-146.40;98.77
13033;BME280;6583;42.632;23.298;2024-03-08T01:29:50;71149.59;;;-146.40;98.84
13033;BME280;6583;42.632;23.298;2024-03-08T01:32:17;71157.69;;;-146.40;98.93
13033;BME280;6583;42.632;23.298;2024-03-08T01:34:44;71151.63;;;-146.40;98.45
13033;BME280;6583;42.632;23.298;2024-03-08T01:37:11;71157.69;;;-146.40;98.94
13033;BME280;6583;42.632;23.298;2024-03-08T01:39:41;71155.69;;;-146.40;99.08
13033;BME280;6583;42.632;23.298;2024-03-08T01:42:08;71161.75;;;-146.40;98.25
13033;BME280;6583;42.632;23.298;2024-03-08T01:44:37;71181.97;;;-146.40;98.06
13033;BME280;6583;42.632;23.298;2024-03-08T01:47:07;71188.06;;;-146.40;98.50
13033;BME280;6583;42.632;23.298;2024-03-08T01:49:34;71188.06;;;-146.40;99.23
13033;BME280;6583;42.632;23.298;2024-03-08T01:52:01;71186.03;;;-146.40;99.55
13033;BME280;6583;42.632;23.298;2024-03-08T01:54:28;71184.00;;;-146.40;99.29
13033;BME280;6583;42.632;23.298;2024-03-08T01:56:57;71194.13;;;-146.40;99.52
13033;BME280;6583;42.632;23.298;2024-03-08T01:59:24;71204.25;;;-146.40;100.00
13033;BME280;6583;42.632;23.298;2024-03-08T02:01:54;71200.19;;;-146.40;100.00
13033;BME280;6583;42.632;23.298;2024-03-08T02:04:21;71186.03;;;-146.40;100.00
13033;BME280;6583;42.632;23.298;2024-03-08T02:06:49;71186.03;;;-146.40;100.00
13033;BME280;6583;42.632;23.298;2024-03-08T02:09:17;71175.91;;;-146.40;100.00
13033;BME280;6583;42.632;23.298;2024-03-08T02:11:44;71173.88;;;-146.40;100.00
13033;BME280;6583;42.632;23.298;2024-03-08T02:14:15;71169.84;;;-146.40;100.00
13033;BME280;6583;42.632;23.298;2024-03-08T02:16:41;71190.06;;;-146.40;99.50
13033;BME280;6583;42.632;23.298;2024-03-08T02:19:08;71192.09;;;-146.40;99.01
13033;BME280;6583;42.632;23.298;2024-03-08T02:21:36;71186.03;;;-146.40;99.22
13033;BME280;6583;42.632;23.298;2024-03-08T02:24:04;71184.00;;;-146.40;99.90
13033;BME280;6583;42.632;23.298;2024-03-08T02:26:31;71181.97;;;-146.40;99.77
13033;BME280;6583;42.632;23.298;2024-03-08T02:28:58;71177.94;;;-146.40;100.00
13033;BME280;6583;42.632;23.298;2024-03-08T02:31:25;71169.84;;;-146.40;100.00
13033;BME280;6583;42.632;23.298;2024-03-08T02:33:51;71161.75;;;-146.40;99.88
13033;BME280;6583;42.632;23.298;2024-03-08T02:36:18;71153.66;;;-146.40;100.00
13033;BME280;6583;42.632;23.298;2024-03-08T02:38:46;71145.56;;;-146.40;100.00
13033;BME280;6583;42.632;23.298;2024-03-08T02:41:19;71135.44;;;-146.40;99.25
13033;BME280;6583;42.632;23.298;2024-03-08T02:43:46;71123.28;;;-146.40;98.57
13033;BME280;6583;42.632;23.298;2024-03-08T02:46:13;71121.28;;;-146.40;97.89
13033;BME280;6583;42.632;23.298;2024-03-08T02:48:43;71113.19;;;-146.40;97.61
13033;BME280;6583;42.632;23.298;2024-03-08T02:51:10;71101.03;;;-146.40;97.30
13033;BME280;6583;42.632;23.298;2024-03-08T02:53:37;71105.09;;;-146.40;95.66
13033;BME280;6583;42.632;23.298;2024-03-08T02:56:05;71109.13;;;-146.40;94.53
13033;BME280;6583;42.632;23.298;2024-03-08T02:58:34;71113.19;;;-146.40;94.04
13033;BME280;6583;42.632;23.298;2024-03-08T03:01:00;71121.28;;;-146.40;94.51
13033;BME280;6583;42.632;23.298;2024-03-08T03:03:27;71119.25;;;-146.40;94.75
13033;BME280;6583;42.632;23.298;2024-03-08T03:05:54;71115.19;;;-146.40;94.84
13033;BME280;6583;42.632;23.298;2024-03-08T03:08:21;71117.22;;;-146.40;94.82
13033;BME280;6583;42.632;23.298;2024-03-08T03:10:49;71113.19;;;-146.40;95.24
13033;BME280;6583;42.632;23.298;2024-03-08T03:13:17;71107.13;;;-146.40;94.72
13033;BME280;6583;42.632;23.298;2024-03-08T03:15:46;71101.03;;;-146.40;93.12
13033;BME280;6583;42.632;23.298;2024-03-08T03:18:12;71119.25;;;-146.40;91.99
13033;BME280;6583;42.632;23.298;2024-03-08T03:20:39;71113.19;;;-146.40;92.42
13033;BME280;6583;42.632;23.298;2024-03-08T03:23:08;71125.31;;;-146.40;90.37
13033;BME280;6583;42.632;23.298;2024-03-08T03:25:35;71129.38;;;-146.40;90.59
13033;BME280;6583;42.632;23.298;2024-03-08T03:28:04;71133.41;;;-146.40;90.86
13033;BME280;6583;42.632;23.298;2024-03-08T03:30:34;71161.75;;;-146.40;89.02
13033;BME280;6583;42.632;23.298;2024-03-08T03:33:02;71169.84;;;-146.40;89.67
13033;BME280;6583;42.632;23.298;2024-03-08T03:35:32;71184.00;;;-146.40;90.90
13033;BME280;6583;42.632;23.298;2024-03-08T03:37:59;71194.13;;;-146.40;91.67
13033;BME280;6583;42.632;23.298;2024-03-08T03:40:32;71216.38;;;-146.40;92.27
13033;BME280;6583;42.632;23.298;2024-03-08T03:42:59;71226.50;;;-146.40;92.89
13033;BME280;6583;42.632;23.298;2024-03-08T03:45:26;71234.59;;;-146.40;93.72
13033;BME280;6583;42.632;23.298;2024-03-08T03:47:54;71222.44;;;-146.40;94.18
13033;BME280;6583;42.632;23.298;2024-03-08T03:50:21;71214.34;;;-146.40;94.55
13033;BME280;6583;42.632;23.298;2024-03-08T03:52:48;71206.25;;;-146.40;93.99
13033;BME280;6583;42.632;23.298;2024-03-08T03:55:15;71210.31;;;-146.40;92.79
13033;BME280;6583;42.632;23.298;2024-03-08T03:57:42;71200.19;;;-146.40;92.90
13033;BME280;6583;42.632;23.298;2024-03-08T04:00:11;71220.44;;;-146.40;92.10
13033;BME280;6583;42.632;23.298;2024-03-08T04:02:38;71226.50;;;-146.40;92.22
13033;BME280;6583;42.632;23.298;2024-03-08T04:05:07;71228.53;;;-146.40;92.79
13033;BME280;6583;42.632;23.298;2024-03-08T04:07:34;71230.56;;;-146.40;93.78
13033;BME280;6583;42.632;23.298;2024-03-08T04:10:01;71226.50;;;-146.40;94.52
13033;BME280;6583;42.632;23.298;2024-03-08T04:12:28;71230.56;;;-146.40;94.14
13033;BME280;6583;42.632;23.298;2024-03-08T04:14:56;71242.69;;;-146.40;93.10
13033;BME280;6583;42.632;23.298;2024-03-08T04:17:23;71246.75;;;-146.40;93.33
13033;BME280;6583;42.632;23.298;2024-03-08T04:19:50;71262.94;;;-146.40;93.39
13033;BME280;6583;42.632;23.298;2024-03-08T04:22:18;71271.03;;;-146.40;93.22
13033;BME280;6583;42.632;23.298;2024-03-08T04:24:45;71264.94;;;-146.40;94.44
13033;BME280;6583;42.632;23.298;2024-03-08T04:27:13;71258.88;;;-146.40;95.61
13033;BME280;6583;42.632;23.298;2024-03-08T04:29:40;71250.78;;;-146.40;95.62
13033;BME280;6583;42.632;23.298;2024-03-08T04:32:07;71242.69;;;-146.40;96.00
13033;BME280;6583;42.632;23.298;2024-03-08T04:34:34;71240.66;;;-146.40;94.18
13033;BME280;6583;42.632;23.298;2024-03-08T04:37:00;71246.75;;;-146.40;93.73
13033;BME280;6583;42.632;23.298;2024-03-08T04:39:29;71242.69;;;-146.40;93.28
13033;BME280;6583;42.632;23.298;2024-03-08T04:41:59;71236.63;;;-146.40;93.00
13033;BME280;6583;42.632;23.298;2024-03-08T04:44:26;71238.66;;;-146.40;92.08
13033;BME280;6583;42.632;23.298;2024-03-08T04:46:53;71234.59;;;-146.40;91.45
13033;BME280;6583;42.632;23.298;2024-03-08T04:49:19;71232.56;;;-146.40;92.04
13033;BME280;6583;42.632;23.298;2024-03-08T04:51:47;71230.56;;;-146.40;92.23
13033;BME280;6583;42.632;23.298;2024-03-08T04:54:13;71230.56;;;-146.40;92.01
13033;BME280;6583;42.632;23.298;2024-03-08T04:56:41;71228.53;;;-146.40;92.85
13033;BME280;6583;42.632;23.298;2024-03-08T04:59:08;71224.47;;;-146.40;93.12
13033;BME280;6583;42.632;23.298;2024-03-08T05:01:35;71222.44;;;-146.40;91.82
13033;BME280;6583;42.632;23.298;2024-03-08T05:04:03;71228.53;;;-146.40;89.86
13033;BME280;6583;42.632;23.298;2024-03-08T05:06:30;71232.56;;;-146.40;89.84
13033;BME280;6583;42.632;23.298;2024-03-08T05:08:58;71232.56;;;-146.40;90.62
13033;BME280;6583;42.632;23.298;2024-03-08T05:11:25;71228.53;;;-146.40;91.17
13033;BME280;6583;42.632;23.298;2024-03-08T05:13:53;71236.63;;;-146.40;90.16
13033;BME280;6583;42.632;23.298;2024-03-08T05:16:20;71230.56;;;-146.40;91.25
13033;BME280;6583;42.632;23.298;2024-03-08T05:18:48;71224.47;;;-146.40;90.59
13033;BME280;6583;42.632;23.298;2024-03-08T05:21:15;71224.47;;;-146.40;89.78
13033;BME280;6583;42.632;23.298;2024-03-08T05:23:45;71238.66;;;-146.40;89.00
13033;BME280;6583;42.632;23.298;2024-03-08T05:26:12;71236.63;;;-146.40;88.93
13033;BME280;6583;42.632;23.298;2024-03-08T05:28:39;71262.94;;;-146.40;89.57
13033;BME280;6583;42.632;23.298;2024-03-08T05:31:07;71266.97;;;-146.40;89.23
13033;BME280;6583;42.632;23.298;2024-03-08T05:33:34;71281.13;;;-146.40;90.24
13033;BME280;6583;42.632;23.298;2024-03-08T05:36:01;71281.13;;;-146.40;91.17
13033;BME280;6583;42.632;23.298;2024-03-08T05:38:27;71275.06;;;-146.40;92.35
13033;BME280;6583;42.632;23.298;2024-03-08T05:40:54;71279.13;;;-146.40;91.53
13033;BME280;6583;42.632;23.298;2024-03-08T05:43:21;71285.19;;;-146.40;91.34
13033;BME280;6583;42.632;23.298;2024-03-08T05:45:48;71295.31;;;-146.40;92.27
13033;BME280;6583;42.632;23.298;2024-03-08T05:48:16;71299.34;;;-146.40;92.30
13033;BME280;6583;42.632;23.298;2024-03-08T05:50:43;71311.50;;;-146.40;92.44
13033;BME280;6583;42.632;23.298;2024-03-08T05:53:10;71309.47;;;-146.40;93.45
13033;BME280;6583;42.632;23.298;2024-03-08T05:55:37;71309.47;;;-146.40;94.20
13033;BME280;6583;42.632;23.298;2024-03-08T05:58:04;71299.34;;;-146.40;94.38
13033;BME280;6583;42.632;23.298;2024-03-08T06:00:33;71309.47;;;-146.40;93.30
13033;BME280;6583;42.632;23.298;2024-03-08T06:03:01;71311.50;;;-146.40;92.20
13033;BME280;6583;42.632;23.298;2024-03-08T06:05:29;71311.50;;;-146.40;93.29
13033;BME280;6583;42.632;23.298;2024-03-08T06:07:56;71311.50;;;-146.40;93.48
13033;BME280;6583;42.632;23.298;2024-03-08T06:10:23;71311.50;;;-146.40;93.31
13033;BME280;6583;42.632;23.298;2024-03-08T06:12:49;71317.56;;;-146.40;92.40
13033;BME280;6583;42.632;23.298;2024-03-08T06:15:17;71307.44;;;-146.40;93.31
13033;BME280;6583;42.632;23.298;2024-03-08T06:17:46;71305.41;;;-146.40;93.24
13033;BME280;6583;42.632;23.298;2024-03-08T06:20:13;71297.34;;;-146.40;93.39
13033;BME280;6583;42.632;23.298;2024-03-08T06:22:42;71295.31;;;-146.40;93.00
13033;BME280;6583;42.632;23.298;2024-03-08T06:25:10;71281.13;;;-146.40;92.01
13033;BME280;6583;42.632;23.298;2024-03-08T06:27:39;71287.22;;;-146.40;92.22
13033;BME280;6583;42.632;23.298;2024-03-08T06:30:06;71273.03;;;-146.40;91.81
13033;BME280;6583;42.632;23.298;2024-03-08T06:32:34;71264.94;;;-146.40;91.03
13033;BME280;6583;42.632;23.298;2024-03-08T06:35:01;71269.00;;;-146.40;90.28
13033;BME280;6583;42.632;23.298;2024-03-08T06:37:31;71266.97;;;-146.40;90.00
13033;BME280;6583;42.632;23.298;2024-03-08T06:39:59;71295.31;;;-146.40;88.86
13033;BME280;6583;42.632;23.298;2024-03-08T06:42:26;71303.41;;;-146.40;89.09
13033;BME280;6583;42.632;23.298;2024-03-08T06:44:53;71327.69;;;-146.40;89.26
13033;BME280;6583;42.632;23.298;2024-03-08T06:47:21;71339.81;;;-146.40;89.45
13033;BME280;6583;42.632;23.298;2024-03-08T06:49:51;71404.59;;;-146.40;90.79
13033;BME280;6583;42.632;23.298;2024-03-08T06:52:19;71447.09;;;-146.40;92.17
13033;BME280;6583;42.632;23.298;2024-03-08T06:54:47;71457.19;;;-146.40;94.54
13033;BME280;6583;42.632;23.298;2024-03-08T06:57:15;71457.19;;;-146.40;96.12
13033;BME280;6583;42.632;23.298;2024-03-08T06:59:43;71497.69;;;-146.40;96.88
13033;BME280;6583;42.632;23.298;2024-03-08T07:02:10;71507.78;;;-146.40;97.57
13033;BME280;6583;42.632;23.298;2024-03-08T07:04:36;71513.88;;;-146.40;98.67
13033;BME280;6583;42.632;23.298;2024-03-08T07:07:04;71509.81;;;-146.40;99.99
13033;BME280;6583;42.632;23.298;2024-03-08T07:09:31;71513.88;;;-146.40;99.80
13033;BME280;6583;42.632;23.298;2024-03-08T07:11:58;71505.78;;;-146.40;100.00
13033;BME280;6583;42.632;23.298;2024-03-08T07:14:26;71521.97;;;-146.40;100.00
13033;BME280;6583;42.632;23.298;2024-03-08T07:16:53;71513.88;;;-146.40;100.00
13033;BME280;6583;42.632;23.298;2024-03-08T07:19:19;71507.78;;;-146.40;100.00
13033;BME280;6583;42.632;23.298;2024-03-08T07:21:47;71519.94;;;-146.40;100.00
13033;BME280;6583;42.632;23.298;2024-03-08T07:24:13;71517.91;;;-146.40;100.00
13033;BME280;6583;42.632;23.298;2024-03-08T07:26:58;71493.63;;;-146.40;100.00
13033;BME280;6583;42.632;23.298;2024-03-08T07:29:26;71521.97;;;-146.40;100.00
13033;BME280;6583;42.632;23.298;2024-03-08T07:31:53;71509.81;;;-146.40;100.00
13033;BME280;6583;42.632;23.298;2024-03-08T07:34:33;71509.81;;;-146.40;100.00
13033;BME280;6583;42.632;23.298;2024-03-08T07:36:59;71503.75;;;-146.40;100.00
13033;BME280;6583;42.632;23.298;2024-03-08T07:39:26;71497.69;;;-146.40;99.84
13033;BME280;6583;42.632;23.298;2024-03-08T07:41:53;71497.69;;;-146.40;99.08
13033;BME280;6583;42.632;23.298;2024-03-08T07:44:19;71479.47;;;-146.40;99.21
13033;BME280;6583;42.632;23.298;2024-03-08T07:46:47;71467.31;;;-146.40;99.05
13033;BME280;6583;42.632;23.298;2024-03-08T07:49:15;71451.13;;;-146.40;98.71
13033;BME280;6583;42.632;23.298;2024-03-08T07:51:41;71443.03;;;-146.40;97.35
13033;BME280;6583;42.632;23.298;2024-03-08T07:54:08;71439.00;;;-146.40;94.85
13033;BME280;6583;42.632;23.298;2024-03-08T07:56:35;71441.00;;;-146.40;92.14
13033;BME280;6583;42.632;23.298;2024-03-08T07:59:02;71420.78;;;-146.40;92.94
13033;BME280;6583;42.632;23.298;2024-03-08T08:01:29;71416.72;;;-146.40;92.42
13033;BME280;6583;42.632;23.298;2024-03-08T08:03:57;71445.06;;;-146.40;91.36
13033;BME280;6583;42.632;23.298;2024-03-08T08:06:24;71436.97;;;-146.40;91.53
13033;BME280;6583;42.632;23.298;2024-03-08T08:08:50;71436.97;;;-146.40;90.62
13033;BME280;6583;42.632;23.298;2024-03-08T08:11:17;71428.88;;;-146.40;90.46
13033;BME280;6583;42.632;23.298;2024-03-08T08:13:44;71408.63;;;-146.40;91.02
13033;BME280;6583;42.632;23.298;2024-03-08T08:16:10;71400.53;;;-146.40;90.88
13033;BME280;6583;42.632;23.298;2024-03-08T08:18:38;71388.41;;;-146.40;90.88
13033;BME280;6583;42.632;23.298;2024-03-08T08:21:06;71380.31;;;-146.40;90.46
13033;BME280;6583;42.632;23.298;2024-03-08T08:23:32;71376.25;;;-146.40;90.88
13033;BME280;6583;42.632;23.298;2024-03-08T08:25:59;71374.22;;;-146.40;90.25
13033;BME280;6583;42.632;23.298;2024-03-08T08:28:28;71366.13;;;-146.40;90.17
13033;BME280;6583;42.632;23.298;2024-03-08T08:30:56;71356.00;;;-146.40;90.44
13033;BME280;6583;42.632;23.298;2024-03-08T08:33:25;71351.97;;;-146.40;89.64
13033;BME280;6583;42.632;23.298;2024-03-08T08:35:52;71370.19;;;-146.40;89.20
13033;BME280;6583;42.632;23.298;2024-03-08T08:38:20;71349.94;;;-146.40;89.56
13033;BME280;6583;42.632;23.298;2024-03-08T08:40:48;71343.88;;;-146.40;89.12
13033;BME280;6583;42.632;23.298;2024-03-08T08:43:15;71343.88;;;-146.40;89.15
13033;BME280;6583;42.632;23.298;2024-03-08T08:45:42;71349.94;;;-146.40;89.54
13033;BME280;6583;42.632;23.298;2024-03-08T08:48:08;71354.00;;;-146.40;90.23
13033;BME280;6583;42.632;23.298;2024-03-08T08:50:36;71347.91;;;-146.40;89.09
13033;BME280;6583;42.632;23.298;2024-03-08T08:53:03;71356.00;;;-146.40;89.14
13033;BME280;6583;42.632;23.298;2024-03-08T08:55:33;71335.78;;;-146.40;89.54
13033;BME280;6583;42.632;23.298;2024-03-08T08:58:01;71325.66;;;-146.40;89.91
13033;BME280;6583;42.632;23.298;2024-03-08T09:00:28;71327.69;;;-146.40;89.34
13033;BME280;6583;42.632;23.298;2024-03-08T09:02:56;71325.66;;;-146.40;89.77
13033;BME280;6583;42.632;23.298;2024-03-08T09:05:24;71341.84;;;-146.40;90.04
13033;BME280;6583;42.632;23.298;2024-03-08T09:07:51;71323.63;;;-146.40;89.04
13033;BME280;6583;42.632;23.298;2024-03-08T09:10:19;71313.53;;;-146.40;89.54
13033;BME280;6583;42.632;23.298;2024-03-08T09:12:48;71299.34;;;-146.40;89.63
13033;BME280;6583;42.632;23.298;2024-03-08T09:15:14;71291.25;;;-146.40;89.82
13033;BME280;6583;42.632;23.298;2024-03-08T09:17:45;71291.25;;;-146.40;86.24
13033;BME280;6583;42.632;23.298;2024-03-08T09:20:13;71279.13;;;-146.40;86.87
13033;BME280;6583;42.632;23.298;2024-03-08T09:22:40;71266.97;;;-146.40;86.94
13033;BME280;6583;42.632;23.298;2024-03-08T09:25:08;71271.03;;;-146.40;86.92
13033;BME280;6583;42.632;23.298;2024-03-08T09:27:35;71252.81;;;-146.40;85.75
13033;BME280;6583;42.632;23.298;2024-03-08T09:30:04;71240.66;;;-146.40;85.49
13033;BME280;6583;42.632;23.298;2024-03-08T09:32:32;71266.97;;;-146.40;83.36
13033;BME280;6583;42.632;23.298;2024-03-08T09:34:58;71262.94;;;-146.40;86.24
13033;BME280;6583;42.632;23.298;2024-03-08T09:37:26;71250.78;;;-146.40;86.63
13033;BME280;6583;42.632;23.298;2024-03-08T09:39:53;71275.06;;;-146.40;84.01
13033;BME280;6583;42.632;23.298;2024-03-08T09:42:19;71260.91;;;-146.40;84.39
13033;BME280;6583;42.632;23.298;2024-03-08T09:44:46;71250.78;;;-146.40;83.64
13033;BME280;6583;42.632;23.298;2024-03-08T09:47:15;71258.88;;;-146.40;80.17
13033;BME280;6583;42.632;23.298;2024-03-08T09:49:42;71262.94;;;-146.40;77.96
13033;BME280;6583;42.632;23.298;2024-03-08T09:52:09;71250.78;;;-146.40;79.38
13033;BME280;6583;42.632;23.298;2024-03-08T09:54:37;71246.75;;;-146.40;80.12
13033;BME280;6583;42.632;23.298;2024-03-08T09:57:06;71252.81;;;-146.40;76.83
13033;BME280;6583;42.632;23.298;2024-03-08T09:59:34;71242.69;;;-146.40;78.57
13033;BME280;6583;42.632;23.298;2024-03-08T10:02:17;71236.63;;;-146.40;79.23
13033;BME280;6583;42.632;23.298;2024-03-08T10:04:44;71224.47;;;-146.40;81.33
13033;BME280;6583;42.632;23.298;2024-03-08T10:07:12;71224.47;;;-146.40;80.78
13033;BME280;6583;42.632;23.298;2024-03-08T10:09:39;71214.34;;;-146.40;80.05
13033;BME280;6583;42.632;23.298;2024-03-08T10:12:08;71228.53;;;-146.40;78.05
13033;BME280;6583;42.632;23.298;2024-03-08T10:14:39;71206.25;;;-146.40;79.46
13033;BME280;6583;42.632;23.298;2024-03-08T10:17:07;71212.34;;;-146.40;76.67
13033;BME280;6583;42.632;23.298;2024-03-08T10:19:35;71188.06;;;-146.40;79.02
13033;BME280;6583;42.632;23.298;2024-03-08T10:22:02;71198.16;;;-146.40;77.19
13033;BME280;6583;42.632;23.298;2024-03-08T10:24:30;71194.13;;;-146.40;75.82
13033;BME280;6583;42.632;23.298;2024-03-08T10:26:59;71181.97;;;-146.40;77.41
13033;BME280;6583;42.632;23.298;2024-03-08T10:29:27;71188.06;;;-146.40;75.29
13033;BME280;6583;42.632;23.298;2024-03-08T10:31:54;71177.94;;;-146.40;72.73
13033;BME280;6583;42.632;23.298;2024-03-08T10:34:21;71161.75;;;-146.40;73.10
13033;BME280;6583;42.632;23.298;2024-03-08T10:36:50;71151.63;;;-146.40;72.72
13033;BME280;6583;42.632;23.298;2024-03-08T10:39:21;71133.41;;;-146.40;74.60
13033;BME280;6583;42.632;23.298;2024-03-08T10:41:53;71125.31;;;-146.40;73.63
13033;BME280;6583;42.632;23.298;2024-03-08T10:44:43;71113.19;;;-146.40;71.52
13033;BME280;6583;42.632;23.298;2024-03-08T10:47:18;71113.19;;;-146.40;72.69
13033;BME280;6583;42.632;23.298;2024-03-08T10:49:51;71117.22;;;-146.40;70.70
13033;BME280;6583;42.632;23.298;2024-03-08T10:52:20;71125.31;;;-146.40;72.50
13033;BME280;6583;42.632;23.298;2024-03-08T10:54:47;71125.31;;;-146.40;73.20
13033;BME280;6583;42.632;23.298;2024-03-08T10:57:17;71133.41;;;-146.40;72.81
13033;BME280;6583;42.632;23.298;2024-03-08T10:59:45;71115.19;;;-146.40;72.73
13033;BME280;6583;42.632;23.298;2024-03-08T11:02:12;71119.25;;;-146.40;70.43
13033;BME280;6583;42.632;23.298;2024-03-08T11:04:39;71111.16;;;-146.40;69.78
13033;BME280;6583;42.632;23.298;2024-03-08T11:07:12;71119.25;;;-146.40;70.84
13033;BME280;6583;42.632;23.298;2024-03-08T11:09:44;71121.28;;;-146.40;69.24
13033;BME280;6583;42.632;23.298;2024-03-08T11:12:22;71123.28;;;-146.40;69.53
13033;BME280;6583;42.632;23.298;2024-03-08T11:14:51;71133.41;;;-146.40;72.43
13033;BME280;6583;42.632;23.298;2024-03-08T11:17:26;71133.41;;;-146.40;69.46
13033;BME280;6583;42.632;23.298;2024-03-08T11:20:10;71123.28;;;-146.40;71.14
13033;BME280;6583;42.632;23.298;2024-03-08T11:22:41;71117.22;;;-146.40;68.35
13033;BME280;6583;42.632;23.298;2024-03-08T11:25:31;71101.03;;;-146.40;69.17
13033;BME280;6583;42.632;23.298;2024-03-08T11:28:10;71084.84;;;-146.40;70.20
13033;BME280;6583;42.632;23.298;2024-03-08T11:30:42;71078.78;;;-146.40;68.57
13033;BME280;6583;42.632;23.298;2024-03-08T11:33:11;71062.59;;;-146.40;67.23
13033;BME280;6583;42.632;23.298;2024-03-08T11:35:39;71072.72;;;-146.40;64.19
13033;BME280;6583;42.632;23.298;2024-03-08T11:38:08;71058.53;;;-146.40;65.38
13033;BME280;6583;42.632;23.298;2024-03-08T11:40:37;71054.50;;;-146.40;64.83
13033;BME280;6583;42.632;23.298;2024-03-08T11:43:05;71048.44;;;-146.40;65.57
13033;BME280;6583;42.632;23.298;2024-03-08T11:45:33;71036.28;;;-146.40;67.00
13033;BME280;6583;42.632;23.298;2024-03-08T11:48:04;71032.25;;;-146.40;64.81
13033;BME280;6583;42.632;23.298;2024-03-08T11:50:31;71032.25;;;-146.40;67.39
13033;BME280;6583;42.632;23.298;2024-03-08T11:53:02;71024.16;;;-146.40;66.18
13033;BME280;6583;42.632;23.298;2024-03-08T11:55:30;71024.16;;;-146.40;65.32
13033;BME280;6583;42.632;23.298;2024-03-08T11:58:05;71018.06;;;-146.40;65.46
13033;BME280;6583;42.632;23.298;2024-03-08T12:00:37;71040.34;;;-146.40;64.27
13033;BME280;6583;42.632;23.298;2024-03-08T12:03:07;71030.22;;;-146.40;64.41
13033;BME280;6583;42.632;23.298;2024-03-08T12:05:35;71028.19;;;-146.40;64.98
13033;BME280;6583;42.632;23.298;2024-03-08T12:08:04;71028.19;;;-146.40;66.12
13033;BME280;6583;42.632;23.298;2024-03-08T12:10:32;71032.25;;;-146.40;66.72
13033;BME280;6583;42.632;23.298;2024-03-08T12:13:00;71024.16;;;-146.40;65.59
13033;BME280;6583;42.632;23.298;2024-03-08T12:15:29;71016.06;;;-146.40;65.33
13033;BME280;6583;42.632;23.298;2024-03-08T12:17:58;71016.06;;;-146.40;64.76
13033;BME280;6583;42.632;23.298;2024-03-08T12:20:26;71020.09;;;-146.40;64.11
13033;BME280;6583;42.632;23.298;2024-03-08T12:22:55;71026.16;;;-146.40;62.10
13033;BME280;6583;42.632;23.298;2024-03-08T12:25:25;71016.06;;;-146.40;63.71
13033;BME280;6583;42.632;23.298;2024-03-08T12:27:52;71012.00;;;-146.40;63.98
13033;BME280;6583;42.632;23.298;2024-03-08T12:30:22;71016.06;;;-146.40;65.20
13033;BME280;6583;42.632;23.298;2024-03-08T12:32:54;71014.03;;;-146.40;64.09
13033;BME280;6583;42.632;23.298;2024-03-08T12:35:24;71016.06;;;-146.40;62.96
13033;BME280;6583;42.632;23.298;2024-03-08T12:37:53;71018.06;;;-146.40;63.52
13033;BME280;6583;42.632;23.298;2024-03-08T12:40:25;71024.16;;;-146.40;63.56
13033;BME280;6583;42.632;23.298;2024-03-08T12:42:52;71024.16;;;-146.40;61.30
13033;BME280;6583;42.632;23.298;2024-03-08T12:45:20;71044.38;;;-146.40;62.68